Language: 


Des rapports , des résumés tant et plus, au choix de chacun....


Données statistiques de la station
Quotidien Rapport Mars 19, 2017 Unités:  Métrique    Anglais   les deux
« Précédent Jour
Suivant Jour »
Quotidien Hebdomadaire Mensuel Annuel Actuel
  Haut: Bas: Moyen:
Température: 12.9 °C 0.0 °C 11.4 °C
Pt de rosée: 11.1 °C 8.8 °C 10 °C
Humidité: 98 % 0 % 91 %
Vitesse du vent: 51.5 km/h 12.6 km/h 27.5 km/h
Rafales: 51.8 km/h - -
Vent:- - WSW
Pression: 1012.1 hPa 0.0 hPa -
Précipitation: 0.0 mm    
Historical Graphs
 
 
Données statistiques pour Mars 19, 2017
Heure Température Point de rosée Pression Vent Vitesse du vent Refales Humidité Pluie (taux horaire)
00:00 11.4 °C 11.1 °C 1012.1 hPa WSW 23.3 km/h 31.7 km/h 98 % 0.0 mm
00:05 11.3 °C 10.9 °C 1012.1 hPa WSW 17.2 km/h 31.7 km/h 98 % 0.0 mm
00:10 11.3 °C 10.9 °C 1012.1 hPa West 20.6 km/h 28.5 km/h 98 % 0.0 mm
00:15 11.3 °C 10.9 °C 1012.1 hPa WSW 32.0 km/h 32.0 km/h 98 % 0.0 mm
00:20 11.3 °C 10.9 °C 1012.1 hPa WSW 22.4 km/h 32.0 km/h 98 % 0.0 mm
00:25 11.3 °C 10.9 °C 1011.1 hPa WSW 21.2 km/h 29.9 km/h 98 % 0.0 mm
00:30 11.3 °C 10.9 °C 1011.1 hPa WSW 28.5 km/h 38.1 km/h 98 % 0.0 mm
00:35 11.3 °C 10.9 °C 1011.1 hPa WSW 24.8 km/h 38.1 km/h 98 % 0.0 mm
00:40 11.3 °C 10.9 °C 1011.1 hPa West 25.9 km/h 31.7 km/h 98 % 0.0 mm
00:45 11.3 °C 10.9 °C 1011.1 hPa WSW 26.7 km/h 31.7 km/h 98 % 0.0 mm
00:50 11.3 °C 10.9 °C 1011.1 hPa WSW 20.6 km/h 28.5 km/h 98 % 0.0 mm
00:55 11.3 °C 10.9 °C 1011.1 hPa WSW 30.9 km/h 31.7 km/h 98 % 0.0 mm
01:00 11.3 °C 10.9 °C 1011.1 hPa WSW 17.7 km/h 31.7 km/h 98 % 0.0 mm
01:05 11.3 °C 10.9 °C 1011.1 hPa West 23.8 km/h 34.3 km/h 98 % 0.0 mm
01:10 11.3 °C 10.9 °C 1011.1 hPa West 28.0 km/h 34.3 km/h 98 % 0.0 mm
01:15 11.3 °C 10.9 °C 1011.1 hPa West 20.9 km/h 28.0 km/h 98 % 0.0 mm
01:20 11.3 °C 10.9 °C 1011.1 hPa West 15.8 km/h 27.7 km/h 98 % 0.0 mm
01:25 11.3 °C 10.9 °C 1012.1 hPa WSW 12.6 km/h 27.4 km/h 98 % 0.0 mm
01:30 11.3 °C 10.9 °C 1012.1 hPa WSW 20.9 km/h 25.6 km/h 98 % 0.0 mm
01:35 11.3 °C 10.9 °C 1012.1 hPa WSW 25.3 km/h 28.5 km/h 98 % 0.0 mm
01:40 11.3 °C 10.9 °C 1011.1 hPa West 21.2 km/h 28.5 km/h 98 % 0.0 mm
01:45 11.2 °C 10.9 °C 1011.1 hPa West 12.6 km/h 26.7 km/h 98 % 0.0 mm
01:50 11.3 °C 10.9 °C 1011.1 hPa WSW 20.6 km/h 31.7 km/h 98 % 0.0 mm
01:55 11.3 °C 10.9 °C 1012.1 hPa WSW 21.2 km/h 31.7 km/h 98 % 0.0 mm
02:02 0.0 °C 11.0 °C 0.0 hPa West 24.5 km/h 27.7 km/h 0 % 0.0 mm
02:07 11.2 °C 10.9 °C 1012.1 hPa WSW 18.3 km/h 28.5 km/h 98 % 0.0 mm
02:12 11.2 °C 10.9 °C 1011.1 hPa WSW 20.9 km/h 28.5 km/h 98 % 0.0 mm
02:17 11.2 °C 10.9 °C 1011.1 hPa WSW 24.8 km/h 30.2 km/h 98 % 0.0 mm
02:22 11.2 °C 10.9 °C 1011.1 hPa WNW 24.8 km/h 30.2 km/h 98 % 0.0 mm
02:27 11.2 °C 10.9 °C 1011.1 hPa WSW 13.0 km/h 29.1 km/h 98 % 0.0 mm
02:32 11.2 °C 10.9 °C 1011.1 hPa WSW 16.3 km/h 30.2 km/h 98 % 0.0 mm
02:37 11.2 °C 10.9 °C 1011.1 hPa WSW 21.2 km/h 30.2 km/h 98 % 0.0 mm
02:42 11.2 °C 10.9 °C 1011.1 hPa WSW 20.1 km/h 30.2 km/h 98 % 0.0 mm
02:47 11.2 °C 10.9 °C 1011.1 hPa WSW 15.8 km/h 28.0 km/h 98 % 0.0 mm
02:52 11.2 °C 10.9 °C 1011.1 hPa WSW 27.0 km/h 30.2 km/h 98 % 0.0 mm
02:57 11.2 °C 10.9 °C 1011.1 hPa WSW 17.7 km/h 30.9 km/h 98 % 0.0 mm
03:02 11.2 °C 10.9 °C 1011.1 hPa West 30.2 km/h 30.9 km/h 98 % 0.0 mm
03:07 11.2 °C 10.9 °C 1011.1 hPa WSW 19.5 km/h 33.8 km/h 98 % 0.0 mm
03:12 11.2 °C 10.9 °C 1011.1 hPa West 23.8 km/h 33.8 km/h 98 % 0.0 mm
03:17 11.2 °C 10.9 °C 1011.1 hPa West 17.2 km/h 28.0 km/h 98 % 0.0 mm
03:22 11.1 °C 10.8 °C 1011.1 hPa WSW 19.8 km/h 30.6 km/h 98 % 0.0 mm
03:27 11.1 °C 10.8 °C 1011.1 hPa West 23.8 km/h 30.6 km/h 98 % 0.0 mm
03:32 11.1 °C 10.8 °C 1011.1 hPa WSW 26.7 km/h 32.0 km/h 98 % 0.0 mm
03:37 11.1 °C 10.8 °C 1011.1 hPa WSW 28.5 km/h 32.0 km/h 98 % 0.0 mm
03:42 11.1 °C 10.8 °C 1011.1 hPa WSW 24.5 km/h 32.0 km/h 98 % 0.0 mm
03:49 11.1 °C 10.8 °C 1011.1 hPa WSW 20.6 km/h 28.0 km/h 98 % 0.0 mm
03:54 11.1 °C 10.8 °C 1011.1 hPa WSW 29.9 km/h 29.9 km/h 98 % 0.0 mm
03:59 11.1 °C 10.8 °C 1011.1 hPa WSW 21.9 km/h 29.9 km/h 98 % 0.0 mm
04:04 11.1 °C 10.8 °C 1011.1 hPa WSW 16.6 km/h 31.4 km/h 98 % 0.0 mm
04:09 11.1 °C 10.8 °C 1011.1 hPa WSW 15.8 km/h 31.4 km/h 98 % 0.0 mm
04:14 11.1 °C 10.8 °C 1011.1 hPa West 33.8 km/h 35.6 km/h 98 % 0.0 mm
04:19 11.1 °C 10.8 °C 1011.1 hPa WSW 21.9 km/h 35.6 km/h 98 % 0.0 mm
04:24 11.1 °C 10.8 °C 1011.1 hPa WSW 17.7 km/h 31.4 km/h 98 % 0.0 mm
04:27 11.1 °C 10.8 °C 1011.1 hPa WSW 21.2 km/h 28.0 km/h 98 % 0.0 mm
04:32 11.1 °C 10.8 °C 1011.1 hPa West 20.9 km/h 31.4 km/h 98 % 0.0 mm
04:37 11.1 °C 10.8 °C 1011.1 hPa West 32.0 km/h 32.8 km/h 98 % 0.0 mm
04:42 11.1 °C 10.8 °C 1011.1 hPa WSW 35.2 km/h 36.0 km/h 98 % 0.0 mm
04:47 11.1 °C 10.8 °C 1011.1 hPa WSW 13.7 km/h 36.0 km/h 98 % 0.0 mm
04:52 11.1 °C 10.8 °C 1011.1 hPa West 23.3 km/h 36.4 km/h 98 % 0.0 mm
04:57 11.1 °C 10.8 °C 1011.1 hPa WSW 25.9 km/h 36.4 km/h 98 % 0.0 mm
05:02 11.1 °C 10.8 °C 1011.1 hPa WSW 14.0 km/h 32.8 km/h 98 % 0.0 mm
05:07 11.1 °C 10.8 °C 1011.1 hPa WSW 31.7 km/h 37.5 km/h 98 % 0.0 mm
05:12 11.1 °C 10.8 °C 1011.1 hPa West 35.6 km/h 37.5 km/h 98 % 0.0 mm
05:17 11.1 °C 10.8 °C 1011.1 hPa WSW 16.3 km/h 35.6 km/h 98 % 0.0 mm
05:22 11.1 °C 10.8 °C 1011.1 hPa West 27.7 km/h 38.1 km/h 98 % 0.0 mm
05:27 11.1 °C 10.8 °C 1010.0 hPa West 19.5 km/h 38.1 km/h 98 % 0.0 mm
05:32 11.1 °C 10.8 °C 1010.0 hPa West 20.9 km/h 35.6 km/h 98 % 0.0 mm
05:37 11.1 °C 10.8 °C 1010.0 hPa WSW 31.7 km/h 33.5 km/h 98 % 0.0 mm
05:42 11.1 °C 10.8 °C 1010.0 hPa WSW 23.3 km/h 33.5 km/h 98 % 0.0 mm
05:47 11.1 °C 10.8 °C 1010.0 hPa WSW 23.0 km/h 32.3 km/h 98 % 0.0 mm
05:52 11.1 °C 10.8 °C 1010.0 hPa West 36.0 km/h 36.0 km/h 98 % 0.0 mm
05:57 11.1 °C 10.8 °C 1010.0 hPa WSW 20.9 km/h 37.5 km/h 98 % 0.0 mm
06:02 11.0 °C 10.7 °C 1010.0 hPa WSW 28.5 km/h 37.5 km/h 98 % 0.0 mm
06:07 11.0 °C 10.7 °C 1010.0 hPa WSW 27.4 km/h 36.0 km/h 98 % 0.0 mm
06:12 11.0 °C 10.7 °C 1010.0 hPa West 36.0 km/h 36.0 km/h 98 % 0.0 mm
06:17 11.0 °C 10.7 °C 1010.0 hPa WSW 28.0 km/h 37.5 km/h 98 % 0.0 mm
06:22 11.0 °C 10.7 °C 1010.0 hPa West 32.3 km/h 41.7 km/h 98 % 0.0 mm
06:27 11.0 °C 10.7 °C 1010.0 hPa West 37.5 km/h 41.7 km/h 98 % 0.0 mm
06:32 11.0 °C 10.7 °C 1010.0 hPa West 36.7 km/h 38.5 km/h 98 % 0.0 mm
06:37 11.1 °C 10.8 °C 1010.0 hPa West 32.3 km/h 37.5 km/h 98 % 0.0 mm
06:42 11.0 °C 10.7 °C 1010.0 hPa West 23.8 km/h 37.0 km/h 98 % 0.0 mm
06:47 11.0 °C 10.7 °C 1010.0 hPa WSW 28.5 km/h 33.1 km/h 98 % 0.0 mm
06:52 11.0 °C 10.7 °C 1010.0 hPa WSW 20.6 km/h 33.1 km/h 98 % 0.0 mm
06:57 11.0 °C 10.7 °C 1010.0 hPa WSW 24.8 km/h 36.0 km/h 98 % 0.0 mm
07:02 11.0 °C 10.5 °C 1010.0 hPa West 28.8 km/h 40.4 km/h 97 % 0.0 mm
07:07 11.0 °C 10.5 °C 1010.0 hPa West 21.9 km/h 40.4 km/h 97 % 0.0 mm
07:12 11.0 °C 10.5 °C 1010.0 hPa West 31.4 km/h 39.3 km/h 97 % 0.0 mm
07:17 11.0 °C 10.5 °C 1010.0 hPa West 30.6 km/h 38.1 km/h 97 % 0.0 mm
07:22 11.0 °C 10.5 °C 1010.0 hPa WSW 27.0 km/h 36.4 km/h 97 % 0.0 mm
07:27 11.0 °C 10.5 °C 1010.0 hPa WSW 20.1 km/h 35.6 km/h 97 % 0.0 mm
07:32 11.0 °C 10.5 °C 1010.0 hPa WSW 20.1 km/h 29.1 km/h 97 % 0.0 mm
07:37 11.0 °C 10.5 °C 1010.0 hPa West 25.9 km/h 29.1 km/h 97 % 0.0 mm
07:42 11.1 °C 10.6 °C 1010.0 hPa WSW 37.0 km/h 37.0 km/h 97 % 0.0 mm
07:47 11.1 °C 10.6 °C 1010.0 hPa West 27.7 km/h 38.5 km/h 97 % 0.0 mm
07:52 11.2 °C 10.6 °C 1011.1 hPa WSW 17.2 km/h 38.5 km/h 96 % 0.0 mm
07:57 11.2 °C 10.6 °C 1011.1 hPa West 30.6 km/h 36.0 km/h 96 % 0.0 mm
08:02 11.2 °C 10.6 °C 1011.1 hPa West 24.8 km/h 31.7 km/h 96 % 0.0 mm
08:07 11.3 °C 10.7 °C 1011.1 hPa West 22.7 km/h 31.7 km/h 96 % 0.0 mm
08:12 11.3 °C 10.7 °C 1011.1 hPa West 20.9 km/h 35.2 km/h 96 % 0.0 mm
08:17 11.3 °C 10.5 °C 1011.1 hPa West 36.0 km/h 36.0 km/h 95 % 0.0 mm
08:22 11.3 °C 10.5 °C 1011.1 hPa WSW 24.5 km/h 36.0 km/h 95 % 0.0 mm
08:27 11.3 °C 10.5 °C 1011.1 hPa WSW 31.4 km/h 35.6 km/h 95 % 0.0 mm
08:32 11.3 °C 10.5 °C 1011.1 hPa WSW 39.6 km/h 39.6 km/h 95 % 0.0 mm
08:37 11.3 °C 10.5 °C 1011.1 hPa WSW 28.8 km/h 42.8 km/h 95 % 0.0 mm
08:42 11.2 °C 10.4 °C 1011.1 hPa West 37.0 km/h 42.8 km/h 95 % 0.0 mm
08:47 11.2 °C 10.4 °C 1011.1 hPa WSW 17.7 km/h 39.6 km/h 95 % 0.0 mm
08:52 11.3 °C 10.5 °C 1010.0 hPa West 27.7 km/h 37.0 km/h 95 % 0.0 mm
08:57 11.3 °C 10.5 °C 1010.0 hPa WSW 20.9 km/h 34.6 km/h 95 % 0.0 mm
09:02 11.3 °C 10.5 °C 1010.0 hPa West 21.2 km/h 44.6 km/h 95 % 0.0 mm
09:07 11.4 °C 10.6 °C 1010.0 hPa West 28.0 km/h 44.6 km/h 95 % 0.0 mm
09:12 11.4 °C 10.4 °C 1010.0 hPa WNW 37.5 km/h 45.1 km/h 94 % 0.0 mm
09:17 11.4 °C 10.6 °C 1010.0 hPa WSW 37.8 km/h 45.1 km/h 94 % 0.0 mm
09:22 11.4 °C 10.6 °C 1011.1 hPa WSW 31.7 km/h 42.5 km/h 94 % 0.0 mm
09:27 11.4 °C 10.7 °C 1011.1 hPa West 40.4 km/h 43.1 km/h 95 % 0.0 mm
09:32 11.4 °C 10.6 °C 1011.1 hPa WSW 34.6 km/h 48.9 km/h 94 % 0.0 mm
09:35 11.4 °C 10.4 °C 1011.1 hPa West 37.0 km/h 48.9 km/h 94 % 0.0 mm
09:40 11.4 °C 10.4 °C 1010.0 hPa WSW 36.4 km/h 48.9 km/h 94 % 0.0 mm
09:45 11.4 °C 10.4 °C 1010.0 hPa West 21.9 km/h 39.6 km/h 94 % 0.0 mm
09:50 11.4 °C 10.6 °C 1010.0 hPa WSW 34.6 km/h 40.7 km/h 94 % 0.0 mm
09:55 11.4 °C 10.4 °C 1011.1 hPa West 40.4 km/h 46.0 km/h 94 % 0.0 mm
10:00 11.4 °C 10.3 °C 1011.1 hPa WSW 30.9 km/h 46.0 km/h 93 % 0.0 mm
10:05 11.4 °C 10.4 °C 1011.1 hPa WSW 30.2 km/h 45.1 km/h 93 % 0.0 mm
10:10 11.4 °C 10.4 °C 1011.1 hPa WSW 26.7 km/h 45.1 km/h 93 % 0.0 mm
10:15 11.6 °C 10.4 °C 1011.1 hPa West 41.4 km/h 42.2 km/h 93 % 0.0 mm
10:20 11.6 °C 10.3 °C 1011.1 hPa WSW 28.5 km/h 46.5 km/h 92 % 0.0 mm
10:25 11.6 °C 10.3 °C 1011.1 hPa West 24.5 km/h 46.5 km/h 92 % 0.0 mm
10:30 11.6 °C 10.3 °C 1011.1 hPa WSW 35.6 km/h 49.7 km/h 92 % 0.0 mm
10:35 11.6 °C 10.3 °C 1011.1 hPa WSW 30.6 km/h 49.7 km/h 92 % 0.0 mm
10:40 11.4 °C 10.2 °C 1010.0 hPa WSW 37.8 km/h 42.2 km/h 92 % 0.0 mm
10:45 11.6 °C 10.3 °C 1010.0 hPa SW 25.6 km/h 50.0 km/h 92 % 0.0 mm
10:50 11.6 °C 10.3 °C 1010.0 hPa WSW 28.0 km/h 50.0 km/h 92 % 0.0 mm
10:55 11.6 °C 10.3 °C 1011.1 hPa WSW 40.7 km/h 48.6 km/h 92 % 0.0 mm
11:00 11.6 °C 10.3 °C 1011.1 hPa West 24.5 km/h 48.6 km/h 92 % 0.0 mm
11:05 11.7 °C 10.2 °C 1011.1 hPa West 28.0 km/h 46.5 km/h 91 % 0.0 mm
11:10 11.8 °C 10.2 °C 1011.1 hPa WSW 30.6 km/h 42.8 km/h 90 % 0.0 mm
11:15 11.8 °C 10.2 °C 1011.1 hPa WSW 30.2 km/h 45.7 km/h 90 % 0.0 mm
11:20 11.8 °C 10.0 °C 1011.1 hPa West 35.6 km/h 45.7 km/h 89 % 0.0 mm
11:25 11.9 °C 10.2 °C 1010.0 hPa West 25.9 km/h 43.9 km/h 89 % 0.0 mm
11:30 12.1 °C 10.1 °C 1010.0 hPa West 25.3 km/h 40.4 km/h 88 % 0.0 mm
11:35 12.2 °C 10.1 °C 1010.0 hPa WSW 32.0 km/h 48.3 km/h 87 % 0.0 mm
11:40 12.2 °C 10.1 °C 1010.0 hPa West 32.8 km/h 48.3 km/h 87 % 0.0 mm
11:45 12.1 °C 9.8 °C 1010.0 hPa West 33.1 km/h 49.2 km/h 86 % 0.0 mm
11:50 12.1 °C 9.6 °C 1010.0 hPa WSW 36.0 km/h 51.5 km/h 85 % 0.0 mm
11:55 12.1 °C 10.1 °C 1010.0 hPa WSW 28.5 km/h 51.5 km/h 88 % 0.0 mm
12:00 12.1 °C 9.9 °C 1010.0 hPa WSW 20.6 km/h 38.1 km/h 87 % 0.0 mm
12:05 12.2 °C 10.2 °C 1010.0 hPa West 33.5 km/h 37.0 km/h 88 % 0.0 mm
12:10 12.1 °C 9.9 °C 1010.0 hPa WSW 28.0 km/h 39.6 km/h 87 % 0.0 mm
12:15 12.2 °C 10.2 °C 1010.0 hPa West 30.9 km/h 39.6 km/h 88 % 0.0 mm
12:20 12.1 °C 9.8 °C 1010.0 hPa West 30.2 km/h 46.8 km/h 86 % 0.0 mm
12:25 12.1 °C 9.6 °C 1010.0 hPa West 46.8 km/h 48.3 km/h 85 % 0.0 mm
12:30 11.9 °C 9.7 °C 1010.0 hPa WSW 39.3 km/h 48.3 km/h 86 % 0.0 mm
12:35 11.9 °C 9.7 °C 1010.0 hPa West 35.2 km/h 46.0 km/h 86 % 0.0 mm
12:40 11.9 °C 9.7 °C 1010.0 hPa West 38.5 km/h 46.0 km/h 86 % 0.0 mm
12:45 11.9 °C 9.8 °C 1010.0 hPa SW 24.8 km/h 43.1 km/h 87 % 0.0 mm
12:50 11.9 °C 9.7 °C 1010.0 hPa WSW 26.7 km/h 44.6 km/h 86 % 0.0 mm
12:56 12.1 °C 9.9 °C 1010.0 hPa WSW 37.5 km/h 44.6 km/h 87 % 0.0 mm
13:01 12.1 °C 9.9 °C 1010.0 hPa WSW 35.6 km/h 43.9 km/h 87 % 0.0 mm
13:06 12.2 °C 10.1 °C 1010.0 hPa West 38.1 km/h 47.5 km/h 87 % 0.0 mm
13:11 12.2 °C 10.2 °C 1009.0 hPa West 33.8 km/h 47.5 km/h 87 % 0.0 mm
13:16 12.2 °C 10.0 °C 1009.0 hPa WSW 40.7 km/h 43.9 km/h 86 % 0.0 mm
13:21 12.3 °C 10.1 °C 1009.0 hPa WSW 23.8 km/h 43.9 km/h 86 % 0.0 mm
13:26 12.4 °C 10.0 °C 1010.0 hPa West 16.3 km/h 42.2 km/h 85 % 0.0 mm
13:31 12.7 °C 10.1 °C 1010.0 hPa WSW 36.7 km/h 42.5 km/h 84 % 0.0 mm
13:36 12.8 °C 9.7 °C 1010.0 hPa WSW 36.4 km/h 47.9 km/h 81 % 0.0 mm
13:41 12.8 °C 9.8 °C 1009.0 hPa West 38.1 km/h 47.9 km/h 82 % 0.0 mm
13:46 12.9 °C 9.6 °C 1009.0 hPa WSW 40.4 km/h 47.1 km/h 80 % 0.0 mm
13:47 12.9 °C 9.6 °C 1009.0 hPa West 51.5 km/h 51.5 km/h 80 % 0.0 mm
13:52 12.7 °C 9.4 °C 1009.0 hPa WSW 28.5 km/h 51.5 km/h 80 % 0.0 mm
13:57 12.7 °C 9.3 °C 1010.0 hPa WSW 42.2 km/h 48.3 km/h 80 % 0.0 mm
14:07 12.7 °C 9.4 °C 1010.0 hPa West 48.6 km/h 48.6 km/h 81 % 0.0 mm
14:12 12.6 °C 9.4 °C 1010.0 hPa WSW 38.5 km/h 48.6 km/h 81 % 0.0 mm
14:17 12.6 °C 9.4 °C 1010.0 hPa West 31.4 km/h 48.6 km/h 81 % 0.0 mm
14:22 12.6 °C 9.4 °C 1010.0 hPa West 24.5 km/h 46.0 km/h 81 % 0.0 mm
14:27 12.6 °C 9.2 °C 1010.0 hPa West 38.9 km/h 46.0 km/h 80 % 0.0 mm
14:32 12.4 °C 9.1 °C 1010.0 hPa West 22.4 km/h 39.3 km/h 80 % 0.0 mm
14:37 12.3 °C 9.2 °C 1010.0 hPa West 28.5 km/h 38.5 km/h 81 % 0.0 mm
14:42 12.3 °C 9.2 °C 1010.0 hPa WSW 37.0 km/h 44.2 km/h 81 % 0.0 mm
14:47 12.2 °C 8.9 °C 1010.0 hPa West 41.4 km/h 44.2 km/h 80 % 0.0 mm
14:52 12.2 °C 8.8 °C 1009.0 hPa WSW 41.7 km/h 48.3 km/h 80 % 0.0 mm
14:57 11.9 °C 8.8 °C 1009.0 hPa West 46.0 km/h 48.3 km/h 81 % 0.0 mm
15:02 11.9 °C 9.0 °C 1009.0 hPa WSW 37.0 km/h 46.0 km/h 82 % 0.0 mm
15:07 11.9 °C 9.0 °C 1010.0 hPa WSW 23.8 km/h 42.8 km/h 82 % 0.0 mm
15:12 11.9 °C 9.2 °C 1010.0 hPa WSW 28.8 km/h 42.8 km/h 83 % 0.0 mm
15:17 11.9 °C 9.2 °C 1010.0 hPa West 27.7 km/h 41.4 km/h 83 % 0.0 mm
15:22 11.9 °C 9.2 °C 1010.0 hPa West 36.7 km/h 41.4 km/h 83 % 0.0 mm
15:27 12.1 °C 9.4 °C 1010.0 hPa WSW 35.6 km/h 39.3 km/h 84 % 0.0 mm
15:32 11.9 °C 9.3 °C 1010.0 hPa West 28.0 km/h 46.0 km/h 84 % 0.0 mm
15:37 11.9 °C 9.3 °C 1010.0 hPa WSW 20.6 km/h 46.0 km/h 84 % 0.0 mm
15:42 12.2 °C 9.5 °C 1010.0 hPa SSW 29.9 km/h 44.6 km/h 84 % 0.0 mm
15:47 12.2 °C 9.6 °C 1010.0 hPa WSW 38.9 km/h 41.7 km/h 84 % 0.0 mm
15:52 12.2 °C 9.4 °C 1009.0 hPa West 24.8 km/h 45.7 km/h 83 % 0.0 mm
15:57 12.2 °C 9.6 °C 1009.0 hPa WSW 38.1 km/h 45.7 km/h 84 % 0.0 mm
16:02 12.2 °C 9.4 °C 1009.0 hPa West 36.0 km/h 44.2 km/h 83 % 0.0 mm
16:07 12.2 °C 9.3 °C 1010.0 hPa WSW 36.4 km/h 51.8 km/h 82 % 0.0 mm
16:12 12.2 °C 9.4 °C 1010.0 hPa West 29.9 km/h 51.8 km/h 83 % 0.0 mm
16:17 12.2 °C 9.4 °C 1010.0 hPa WSW 36.4 km/h 47.9 km/h 83 % 0.0 mm
16:23 12.2 °C 9.4 °C 1009.0 hPa WSW 32.8 km/h 47.9 km/h 83 % 0.0 mm
16:28 12.2 °C 9.4 °C 1009.0 hPa West 35.6 km/h 45.7 km/h 83 % 0.0 mm
16:33 12.2 °C 9.4 °C 1009.0 hPa West 32.8 km/h 44.6 km/h 83 % 0.0 mm
16:38 12.2 °C 9.3 °C 1009.0 hPa West 35.6 km/h 45.1 km/h 83 % 0.0 mm
16:43 12.2 °C 9.5 °C 1009.0 hPa WSW 40.7 km/h 50.0 km/h 84 % 0.0 mm
16:48 12.1 °C 9.4 °C 1009.0 hPa WSW 41.7 km/h 50.0 km/h 84 % 0.0 mm
16:53 12.1 °C 9.4 °C 1010.0 hPa West 35.6 km/h 51.2 km/h 84 % 0.0 mm
16:58 12.1 °C 9.4 °C 1010.0 hPa WSW 32.0 km/h 51.2 km/h 84 % 0.0 mm
16:59 12.1 °C 9.6 °C 1010.0 hPa WSW 28.5 km/h 51.2 km/h 85 % 0.0 mm
17:04 12.1 °C 9.6 °C 1010.0 hPa West 42.2 km/h 42.2 km/h 85 % 0.0 mm
17:09 12.1 °C 9.6 °C 1009.0 hPa WSW 38.9 km/h 47.9 km/h 85 % 0.0 mm
17:14 12.1 °C 9.6 °C 1009.0 hPa West 35.6 km/h 47.9 km/h 85 % 0.0 mm
17:19 12.2 °C 9.7 °C 1009.0 hPa West 32.0 km/h 44.2 km/h 85 % 0.0 mm
17:24 12.1 °C 9.4 °C 1009.0 hPa West 28.5 km/h 44.2 km/h 84 % 0.0 mm
17:29 12.1 °C 9.4 °C 1009.0 hPa West 29.1 km/h 46.0 km/h 84 % 0.0 mm
17:34 12.1 °C 9.4 °C 1009.0 hPa WSW 28.0 km/h 46.0 km/h 84 % 0.0 mm
17:39 12.1 °C 9.6 °C 1010.0 hPa West 36.7 km/h 42.8 km/h 85 % 0.0 mm
17:49 11.9 °C 9.5 °C 1010.0 hPa WSW 37.0 km/h 42.5 km/h 85 % 0.0 mm
17:54 11.9 °C 9.5 °C 1009.0 hPa West 20.1 km/h 46.0 km/h 85 % 0.0 mm
17:59 11.9 °C 9.5 °C 1009.0 hPa WSW 27.4 km/h 46.0 km/h 85 % 0.0 mm
18:04 11.8 °C 9.4 °C 1009.0 hPa SW 20.6 km/h 38.9 km/h 85 % 0.0 mm
18:09 11.8 °C 9.3 °C 1010.0 hPa WSW 21.2 km/h 36.0 km/h 85 % 0.0 mm
18:14 11.8 °C 9.3 °C 1010.0 hPa West 19.5 km/h 36.0 km/h 85 % 0.0 mm
18:19 11.7 °C 9.4 °C 1010.0 hPa WSW 20.9 km/h 37.0 km/h 86 % 0.0 mm
18:24 11.6 °C 9.3 °C 1010.0 hPa WSW 21.2 km/h 41.0 km/h 86 % 0.0 mm
18:29 11.6 °C 9.3 °C 1010.0 hPa West 33.5 km/h 41.0 km/h 86 % 0.0 mm
18:34 11.4 °C 9.2 °C 1010.0 hPa WSW 23.8 km/h 37.8 km/h 86 % 0.0 mm
18:39 11.4 °C 9.2 °C 1010.0 hPa WSW 21.2 km/h 37.8 km/h 86 % 0.0 mm
18:44 11.4 °C 9.2 °C 1010.0 hPa West 17.7 km/h 39.3 km/h 86 % 0.0 mm
18:49 11.4 °C 9.2 °C 1010.0 hPa WSW 23.8 km/h 39.3 km/h 86 % 0.0 mm
18:54 11.4 °C 9.2 °C 1010.0 hPa West 30.9 km/h 36.7 km/h 86 % 0.0 mm
18:59 11.4 °C 9.2 °C 1010.0 hPa WSW 21.2 km/h 38.5 km/h 86 % 0.0 mm
19:04 11.4 °C 9.1 °C 1010.0 hPa WSW 35.2 km/h 42.2 km/h 86 % 0.0 mm
19:09 11.4 °C 9.1 °C 1010.0 hPa WSW 42.5 km/h 43.6 km/h 86 % 0.0 mm
19:14 11.3 °C 9.0 °C 1010.0 hPa WSW 23.3 km/h 43.6 km/h 86 % 0.0 mm
19:19 11.2 °C 9.1 °C 1010.0 hPa WSW 31.7 km/h 40.4 km/h 87 % 0.0 mm
19:24 11.2 °C 9.1 °C 1010.0 hPa WSW 32.0 km/h 37.5 km/h 87 % 0.0 mm
19:29 11.1 °C 9.0 °C 1010.0 hPa WSW 25.3 km/h 37.5 km/h 87 % 0.0 mm
19:35 11.1 °C 9.0 °C 1010.0 hPa WSW 31.7 km/h 36.0 km/h 87 % 0.0 mm
19:40 11.1 °C 9.0 °C 1010.0 hPa WSW 23.8 km/h 36.4 km/h 87 % 0.0 mm
19:45 11.0 °C 8.9 °C 1010.0 hPa WSW 19.8 km/h 36.4 km/h 87 % 0.0 mm
19:50 11.0 °C 8.9 °C 1010.0 hPa WSW 20.1 km/h 33.5 km/h 87 % 0.0 mm
19:55 11.0 °C 8.9 °C 1010.0 hPa WSW 23.0 km/h 36.0 km/h 87 % 0.0 mm
20:00 11.0 °C 8.9 °C 1010.0 hPa WSW 20.9 km/h 37.0 km/h 87 % 0.0 mm
20:05 11.1 °C 9.0 °C 1010.0 hPa WSW 24.5 km/h 37.8 km/h 87 % 0.0 mm
20:10 11.1 °C 9.2 °C 1010.0 hPa WSW 19.5 km/h 37.8 km/h 88 % 0.0 mm
20:15 11.1 °C 9.2 °C 1010.0 hPa West 24.5 km/h 35.2 km/h 88 % 0.0 mm
20:20 11.1 °C 9.2 °C 1010.0 hPa WSW 32.8 km/h 37.8 km/h 88 % 0.0 mm
20:25 11.2 °C 9.3 °C 1011.1 hPa West 21.6 km/h 37.8 km/h 88 % 0.0 mm
20:27 11.2 °C 9.3 °C 1011.1 hPa WSW 29.1 km/h 32.8 km/h 88 % 0.0 mm
20:32 11.2 °C 9.3 °C 1011.1 hPa WSW 21.2 km/h 36.4 km/h 88 % 0.0 mm
20:42 11.2 °C 9.3 °C 1010.0 hPa WSW 39.3 km/h 39.3 km/h 88 % 0.0 mm
20:52 11.2 °C 9.3 °C 1010.0 hPa WSW 22.7 km/h 33.1 km/h 88 % 0.0 mm
20:57 11.2 °C 9.3 °C 1010.0 hPa WSW 21.6 km/h 36.4 km/h 88 % 0.0 mm
21:02 11.2 °C 9.3 °C 1010.0 hPa SW 36.4 km/h 37.0 km/h 88 % 0.0 mm
21:07 11.2 °C 9.3 °C 1011.1 hPa WSW 31.7 km/h 37.0 km/h 88 % 0.0 mm
21:12 11.1 °C 9.2 °C 1011.1 hPa WSW 24.8 km/h 31.7 km/h 88 % 0.0 mm
21:17 11.1 °C 9.2 °C 1011.1 hPa WSW 20.9 km/h 30.9 km/h 88 % 0.0 mm
21:22 11.1 °C 9.2 °C 1011.1 hPa West 30.9 km/h 30.9 km/h 88 % 0.0 mm
21:27 11.1 °C 9.2 °C 1011.1 hPa West 27.4 km/h 30.9 km/h 88 % 0.0 mm
21:32 11.1 °C 9.0 °C 1011.1 hPa WSW 30.9 km/h 30.9 km/h 87 % 0.0 mm
21:37 11.0 °C 8.9 °C 1011.1 hPa WSW 21.2 km/h 32.8 km/h 87 % 0.0 mm
21:42 11.0 °C 9.1 °C 1011.1 hPa WSW 21.2 km/h 32.8 km/h 88 % 0.0 mm
21:47 11.0 °C 9.1 °C 1011.1 hPa WSW 24.8 km/h 27.7 km/h 88 % 0.0 mm
21:53 10.9 °C 8.9 °C 1011.1 hPa WSW 28.5 km/h 30.6 km/h 88 % 0.0 mm
21:58 10.9 °C 8.9 °C 1011.1 hPa WSW 20.1 km/h 30.6 km/h 88 % 0.0 mm
22:03 10.9 °C 8.8 °C 1011.1 hPa West 13.7 km/h 28.5 km/h 87 % 0.0 mm
22:08 10.9 °C 8.8 °C 1011.1 hPa WSW 20.1 km/h 28.8 km/h 87 % 0.0 mm
22:13 10.9 °C 8.8 °C 1011.1 hPa WSW 23.3 km/h 28.8 km/h 87 % 0.0 mm
22:18 10.9 °C 8.8 °C 1011.1 hPa WSW 24.8 km/h 33.8 km/h 87 % 0.0 mm
22:23 10.8 °C 8.9 °C 1010.0 hPa WSW 20.1 km/h 33.8 km/h 88 % 0.0 mm
22:28 10.7 °C 8.8 °C 1010.0 hPa WSW 16.9 km/h 28.0 km/h 88 % 0.0 mm
22:33 10.7 °C 8.9 °C 1010.0 hPa WSW 17.2 km/h 27.7 km/h 89 % 0.0 mm
22:38 10.7 °C 8.9 °C 1010.0 hPa WSW 19.8 km/h 28.5 km/h 89 % 0.0 mm
22:43 10.7 °C 9.1 °C 1010.0 hPa West 21.6 km/h 28.5 km/h 90 % 0.0 mm
22:48 10.7 °C 9.1 °C 1010.0 hPa WSW 17.7 km/h 28.5 km/h 90 % 0.0 mm
22:53 10.7 °C 9.1 °C 1010.0 hPa WSW 16.3 km/h 27.7 km/h 90 % 0.0 mm
22:58 10.7 °C 9.3 °C 1010.0 hPa WSW 16.9 km/h 27.7 km/h 91 % 0.0 mm
23:03 10.7 °C 9.3 °C 1010.0 hPa WSW 21.2 km/h 24.8 km/h 91 % 0.0 mm
23:08 10.7 °C 9.3 °C 1010.0 hPa WSW 24.5 km/h 28.5 km/h 91 % 0.0 mm
23:13 10.7 °C 9.3 °C 1010.0 hPa WSW 13.0 km/h 28.5 km/h 91 % 0.0 mm
23:18 10.7 °C 9.3 °C 1010.0 hPa WSW 17.2 km/h 27.4 km/h 91 % 0.0 mm
23:23 10.7 °C 9.3 °C 1010.0 hPa WSW 16.6 km/h 27.4 km/h 91 % 0.0 mm
23:28 10.7 °C 9.3 °C 1010.0 hPa WSW 21.2 km/h 24.8 km/h 91 % 0.0 mm
23:33 10.7 °C 9.4 °C 1010.0 hPa WSW 22.4 km/h 25.3 km/h 92 % 0.0 mm
23:38 10.6 °C 9.3 °C 1010.0 hPa West 16.9 km/h 28.0 km/h 92 % 0.0 mm
23:43 10.7 °C 9.4 °C 1010.0 hPa WSW 19.8 km/h 28.5 km/h 92 % 0.0 mm
23:48 10.6 °C 9.3 °C 1010.0 hPa WSW 20.6 km/h 28.5 km/h 92 % 0.0 mm
23:53 10.7 °C 9.6 °C 1010.0 hPa West 21.9 km/h 27.7 km/h 93 % 0.0 mm
23:58 10.7 °C 9.6 °C 1010.0 hPa WSW 17.7 km/h 27.7 km/h 93 % 0.0 mm
Le Gheer Warneton
Courtoisie de Weather Underground - 2.25 mb

Mise a jour : 17/12/2017 22:23:12
Généré par Cumulus 1.9.4 (1099)